Time;durP1;ratioP1;P1;durP2;ratioP2;P2;SDS_P1;SDS_P2;PMS_P1;PMS_P2;Temp;Humidity;BMP_temperature;BMP_pressure;BME280_temperature;BME280_humidity;BME280_pressure;Samples;Min_cycle;Max_cycle;Signal;HPM_P1;HPM_P2
2022/04/29 00:01:14;;;;;;;11.27;8.55;;;;;;;14.00;51.21;101250.81;10235561;28;20043;-62
2022/04/29 00:06:16;;;;;;;10.35;7.25;;;;;;;14.09;51.04;101269.66;10235761;28;20066;-61
2022/04/29 00:11:18;;;;;;;9.60;8.57;;;;;;;13.94;51.47;101257.50;10236069;28;20628;-62
2022/04/29 00:16:19;;;;;;;13.52;8.35;;;;;;;13.97;51.65;101267.97;10236509;28;20142;-63
2022/04/29 00:21:22;;;;;;;9.82;7.68;;;;;;;13.95;51.99;101264.56;10247007;28;20057;-62
2022/04/29 00:26:23;;;;;;;9.15;7.70;;;;;;;13.93;51.36;101267.38;10241371;28;20142;-62
2022/04/29 00:31:24;;;;;;;10.13;7.65;;;;;;;13.74;52.47;101267.94;10237111;28;20053;-63
2022/04/29 00:36:26;;;;;;;9.48;8.55;;;;;;;13.67;52.75;101252.50;10233993;28;20055;-63
2022/04/29 00:41:27;;;;;;;9.60;8.52;;;;;;;13.76;52.74;101255.28;10230745;28;20586;-62
2022/04/29 00:46:34;;;;;;;12.00;8.88;;;;;;;13.68;53.21;101255.03;10231986;28;20051;-62
2022/04/29 00:51:36;;;;;;;9.30;8.30;;;;;;;13.52;52.69;101242.00;10230848;28;20934;-61
2022/04/29 00:56:41;;;;;;;9.68;8.68;;;;;;;13.48;53.13;101245.03;10234560;28;20047;-63
2022/04/29 01:01:44;;;;;;;12.80;9.80;;;;;;;13.51;53.81;101250.13;10235131;28;20063;-62
2022/04/29 01:06:46;;;;;;;11.05;8.88;;;;;;;13.52;53.67;101243.81;10236923;28;20693;-62
2022/04/29 01:11:48;;;;;;;9.77;8.55;;;;;;;13.54;53.81;101244.56;10233051;28;20062;-63
2022/04/29 01:16:50;;;;;;;10.38;8.27;;;;;;;13.55;53.65;101232.88;10229904;28;20047;-62
2022/04/29 01:21:52;;;;;;;12.13;8.07;;;;;;;13.43;53.62;101224.84;10234909;28;20182;-62
2022/04/29 01:26:53;;;;;;;9.82;8.25;;;;;;;13.44;54.04;101223.88;10241273;28;20130;-62
2022/04/29 01:31:55;;;;;;;10.88;8.80;;;;;;;13.43;54.04;101219.47;10229904;28;20154;-62
2022/04/29 01:36:56;;;;;;;10.18;9.13;;;;;;;13.44;53.88;101223.88;10233728;28;20624;-61
2022/04/29 01:41:58;;;;;;;11.27;7.95;;;;;;;13.43;53.81;101222.16;10226131;28;20078;-64
2022/04/29 01:46:59;;;;;;;10.65;9.18;;;;;;;13.35;54.00;101207.69;10227922;28;20058;-62
2022/04/29 01:52:01;;;;;;;11.30;8.48;;;;;;;13.37;54.15;101217.28;10232315;28;20046;-63
2022/04/29 01:57:04;;;;;;;10.07;8.65;;;;;;;13.16;53.93;101208.22;10243075;28;20042;-62
2022/04/29 02:02:06;;;;;;;10.73;8.45;;;;;;;13.24;53.66;101221.84;10228788;28;20161;-63
2022/04/29 02:07:08;;;;;;;13.02;8.90;;;;;;;13.16;54.91;101216.25;10233389;28;20058;-63
2022/04/29 02:12:11;;;;;;;11.35;9.40;;;;;;;13.20;54.54;101213.22;10228468;28;20461;-67
2022/04/29 02:17:12;;;;;;;10.13;9.02;;;;;;;13.10;54.82;101204.19;10232629;28;20047;-63
2022/04/29 02:22:14;;;;;;;11.15;8.93;;;;;;;13.01;54.91;101189.69;10241272;28;20046;-62
2022/04/29 02:27:15;;;;;;;11.05;8.90;;;;;;;13.08;54.90;101206.13;10232750;28;20065;-61
2022/04/29 02:32:17;;;;;;;14.27;9.60;;;;;;;13.07;55.07;101212.44;10232151;28;20399;-63
2022/04/29 02:37:19;;;;;;;14.68;9.95;;;;;;;13.03;55.23;101211.81;10231449;28;20035;-61
2022/04/29 02:42:20;;;;;;;12.40;9.02;;;;;;;13.00;55.52;101206.72;10234717;28;20910;-64
2022/04/29 02:47:21;;;;;;;13.23;9.13;;;;;;;12.97;55.61;101208.75;10237685;28;20130;-61
2022/04/29 02:52:23;;;;;;;13.40;9.40;;;;;;;12.94;55.36;101199.16;10233070;28;20134;-60
2022/04/29 02:57:24;;;;;;;10.68;9.07;;;;;;;12.72;55.49;101168.69;10229921;28;20107;-61
2022/04/29 03:02:27;;;;;;;10.35;9.30;;;;;;;12.87;55.77;101204.09;10225571;28;20077;-62
2022/04/29 03:07:28;;;;;;;14.45;10.70;;;;;;;12.73;55.64;101183.78;10226928;28;20150;-61
2022/04/29 03:12:30;;;;;;;10.82;9.25;;;;;;;12.83;55.79;101196.44;10222520;28;20198;-62
2022/04/29 03:22:52;;;;;;;9.63;8.63;;;;;;;12.70;55.92;101176.00;10232638;28;20043;-61
2022/04/29 03:27:53;;;;;;;10.18;9.18;;;;;;;12.61;55.35;101159.78;10230108;28;20072;-62
2022/04/29 03:32:57;;;;;;;10.10;7.97;;;;;;;12.75;55.88;101194.34;10236039;28;20166;-61
2022/04/29 03:37:59;;;;;;;16.17;10.30;;;;;;;12.72;56.05;101179.38;10229467;28;20394;-61
2022/04/29 03:43:00;;;;;;;10.27;8.52;;;;;;;12.65;56.31;101177.28;10227024;28;20055;-62
2022/04/29 03:48:02;;;;;;;9.85;8.32;;;;;;;12.61;56.03;101179.34;10229032;28;20061;-61
2022/04/29 03:53:05;;;;;;;12.55;9.07;;;;;;;12.61;56.42;101182.03;10227110;28;20084;-61
2022/04/29 03:58:06;;;;;;;12.23;8.70;;;;;;;12.60;56.26;101185.66;10231698;28;20042;-62
2022/04/29 04:03:07;;;;;;;11.85;9.77;;;;;;;12.55;56.24;101186.00;10228076;28;20044;-61
2022/04/29 04:08:09;;;;;;;12.23;9.02;;;;;;;12.45;56.86;101186.78;10228998;28;20549;-62
2022/04/29 04:13:13;;;;;;;10.30;8.45;;;;;;;12.43;56.68;101189.56;10229665;28;20437;-61
2022/04/29 04:18:14;;;;;;;10.63;8.02;;;;;;;12.35;56.75;101182.09;10223025;28;20492;-62
2022/04/29 04:23:15;;;;;;;10.90;9.65;;;;;;;12.46;56.43;101188.47;10229703;28;20850;-62
2022/04/29 04:28:17;;;;;;;14.13;9.10;;;;;;;12.44;56.81;101190.41;10225915;28;20057;-61
2022/04/29 04:33:18;;;;;;;10.90;9.20;;;;;;;12.34;57.18;101177.75;10227852;28;20047;-61
2022/04/29 04:38:20;;;;;;;11.68;9.35;;;;;;;12.44;57.10;101195.75;10233313;28;20063;-61
2022/04/29 04:43:22;;;;;;;12.20;9.10;;;;;;;12.47;56.89;101207.06;10226028;28;20177;-61
2022/04/29 04:48:23;;;;;;;11.82;9.35;;;;;;;12.49;57.01;101205.16;10213835;28;20054;-61
2022/04/29 04:53:24;;;;;;;11.20;8.63;;;;;;;12.57;56.41;101203.72;10211673;28;20113;-62
2022/04/29 04:58:26;;;;;;;9.85;8.23;;;;;;;12.59;56.01;101197.28;10211602;28;20051;-62
2022/04/29 05:03:27;;;;;;;10.68;9.25;;;;;;;12.66;56.37;101206.56;10212696;28;20641;-61
2022/04/29 05:08:29;;;;;;;12.88;9.65;;;;;;;12.78;55.90;101211.97;10216506;28;20043;-62
2022/04/29 05:13:30;;;;;;;11.55;9.13;;;;;;;12.83;56.07;101224.00;10217484;28;20051;-62
2022/04/29 05:18:31;;;;;;;11.93;9.32;;;;;;;12.91;56.17;101226.97;10219771;28;20058;-62
2022/04/29 05:23:36;;;;;;;9.88;8.63;;;;;;;13.05;56.11;101222.41;10215566;28;20059;-62
2022/04/29 05:28:37;;;;;;;10.13;8.85;;;;;;;13.06;55.60;101224.09;10214292;28;20070;-62
2022/04/29 05:33:39;;;;;;;11.75;8.70;;;;;;;13.18;55.25;101223.19;10213282;28;20585;-61
2022/04/29 05:44:01;;;;;;;14.73;9.25;;;;;;;13.36;55.75;101223.63;10219610;28;20057;-62
2022/04/29 05:49:04;;;;;;;10.15;8.00;;;;;;;13.54;55.05;101239.19;10214955;28;20047;-61
2022/04/29 05:54:05;;;;;;;9.88;8.80;;;;;;;13.50;54.48;101243.09;10212729;28;20838;-63
2022/04/29 05:59:07;;;;;;;12.93;9.05;;;;;;;13.68;54.62;101230.97;10213000;28;20055;-62
2022/04/29 06:04:08;;;;;;;10.25;8.85;;;;;;;13.72;54.58;101221.72;10217085;28;20477;-62
2022/04/29 06:09:10;;;;;;;12.25;8.98;;;;;;;13.76;54.59;101214.31;10231980;28;20062;-64
2022/04/29 06:14:12;;;;;;;11.50;7.82;;;;;;;13.81;53.86;101214.81;10218982;28;20088;-64
2022/04/29 06:19:13;;;;;;;10.38;8.48;;;;;;;13.84;54.27;101208.34;10215487;28;20505;-63
2022/04/29 06:24:18;;;;;;;9.90;8.65;;;;;;;13.83;54.13;101201.31;10247961;28;20081;-61
2022/04/29 06:29:19;;;;;;;10.82;8.55;;;;;;;13.92;54.00;101216.63;10221689;28;20344;-61
2022/04/29 06:34:21;;;;;;;9.10;8.27;;;;;;;13.96;54.44;101218.06;10212420;28;20066;-61
2022/04/29 06:39:22;;;;;;;9.13;8.13;;;;;;;14.04;55.00;101221.00;10214847;28;20060;-61
2022/04/29 06:44:23;;;;;;;14.32;8.75;;;;;;;14.09;54.28;101229.50;10217297;28;20149;-62
2022/04/29 06:49:25;;;;;;;13.77;9.27;;;;;;;14.01;53.74;101209.69;10216514;28;20050;-59
2022/04/29 06:54:26;;;;;;;25.42;10.27;;;;;;;14.19;54.00;101228.78;10219901;28;20061;-61
2022/04/29 06:59:28;;;;;;;9.27;8.32;;;;;;;14.23;53.96;101241.81;10217922;28;20104;-61
2022/04/29 07:04:29;;;;;;;12.07;8.55;;;;;;;14.24;53.90;101237.28;10215242;28;20673;-63
2022/04/29 07:09:31;;;;;;;14.18;10.25;;;;;;;14.26;53.58;101230.84;10213009;28;20099;-61
2022/04/29 07:14:52;;;;;;;12.63;8.98;;;;;;;14.28;53.55;101228.06;10217929;28;20055;-61
2022/04/29 07:19:54;;;;;;;11.15;8.00;;;;;;;14.41;53.57;101227.88;10221604;28;20170;-63
2022/04/29 07:25:01;;;;;;;14.32;8.57;;;;;;;14.50;53.27;101233.38;10218346;28;20715;-61
2022/04/29 07:30:04;;;;;;;8.90;7.80;;;;;;;14.50;53.01;101211.94;10215789;28;20146;-63
2022/04/29 07:45:46;;;;;;;10.13;8.25;;;;;;;15.21;52.00;101207.91;10214652;28;20146;-61
2022/04/29 07:50:47;;;;;;;9.93;7.95;;;;;;;15.54;51.95;101212.19;10209896;28;20689;-61
2022/04/29 07:55:50;;;;;;;8.32;7.22;;;;;;;15.84;50.91;101212.41;10215584;28;20202;-61
2022/04/29 08:00:51;;;;;;;9.35;8.45;;;;;;;15.96;50.31;101218.50;10216764;28;20057;-61
2022/04/29 08:06:07;;;;;;;9.57;7.90;;;;;;;16.07;48.81;101223.78;10214510;28;21811;-61
2022/04/29 08:11:09;;;;;;;10.45;7.93;;;;;;;16.16;48.49;101222.97;10220815;28;20165;-61
2022/04/29 08:16:11;;;;;;;9.40;7.72;;;;;;;16.28;48.98;101225.56;10226049;28;20088;-61
2022/04/29 08:21:13;;;;;;;9.43;8.00;;;;;;;16.43;48.01;101221.47;10222233;28;20225;-60
2022/04/29 08:26:14;;;;;;;9.77;7.15;;;;;;;16.34;47.41;101190.06;10224850;28;20066;-59
2022/04/29 08:31:16;;;;;;;8.00;7.20;;;;;;;16.71;47.56;101205.53;10222237;28;20826;-64
2022/04/29 08:36:17;;;;;;;8.75;6.88;;;;;;;17.04;47.51;101212.38;10224515;28;20062;-60
2022/04/29 08:41:19;;;;;;;11.43;7.50;;;;;;;17.26;46.59;101216.59;10223917;28;20055;-60
2022/04/29 08:46:22;;;;;;;8.82;8.02;;;;;;;17.45;46.41;101204.09;10226744;28;20047;-61
2022/04/29 08:51:23;;;;;;;8.10;7.30;;;;;;;17.61;46.38;101204.34;10216416;28;20062;-60
2022/04/29 09:01:45;;;;;;;8.80;6.55;;;;;;;17.73;45.76;101196.94;10221170;28;20050;-61
2022/04/29 09:06:50;;;;;;;9.77;8.00;;;;;;;18.08;45.29;101197.25;10215127;28;20540;-61
2022/04/29 09:12:16;;;;;;;12.15;7.53;;;;;;;18.20;43.93;101190.66;10214954;28;20717;-61
2022/04/29 09:17:29;;;;;;;8.48;7.70;;;;;;;18.28;43.99;101190.72;10212589;28;20181;-62
2022/04/29 09:22:31;;;;;;;7.07;6.47;;;;;;;18.45;43.42;101188.22;10212240;28;20053;-62
2022/04/29 09:27:56;;;;;;;7.05;6.45;;;;;;;18.91;42.76;101186.31;10214392;28;20046;-61
2022/04/29 09:32:57;;;;;;;9.13;7.72;;;;;;;19.04;41.27;101170.59;10213573;28;20668;-63
2022/04/29 09:43:42;;;;;;;7.28;6.57;;;;;;;19.88;40.75;101156.59;10214895;28;20065;-62
2022/04/29 09:49:08;;;;;;;10.02;6.95;;;;;;;20.04;39.99;101166.63;10217530;28;20348;-62
2022/04/29 09:54:30;;;;;;;8.25;6.85;;;;;;;20.37;38.42;101164.88;10216813;28;20055;-62
2022/04/29 09:59:44;;;;;;;6.78;6.07;;;;;;;20.88;37.93;101163.94;10220940;28;20189;-61
2022/04/29 10:04:47;;;;;;;7.53;6.25;;;;;;;21.11;36.43;101148.69;10245164;28;20445;-62
2022/04/29 10:09:55;;;;;;;7.13;5.68;;;;;;;21.42;36.92;101150.66;10228355;28;20667;-62
2022/04/29 10:14:58;;;;;;;6.55;5.25;;;;;;;21.77;36.85;101143.16;10220004;28;20051;-62
2022/04/29 10:25:29;;;;;;;6.20;5.60;;;;;;;23.67;32.87;101128.94;10215431;28;20509;-61
2022/04/29 10:30:33;;;;;;;5.95;5.28;;;;;;;23.67;32.43;101123.50;10216476;28;20194;-62
2022/04/29 10:35:45;;;;;;;6.93;5.53;;;;;;;22.98;32.74;101129.16;10213479;28;20055;-66
2022/04/29 10:40:50;;;;;;;7.68;5.22;;;;;;;22.88;31.56;101113.97;10210829;28;20186;-62
2022/04/29 10:46:03;;;;;;;5.93;5.35;;;;;;;23.08;29.80;101114.28;10215064;28;20065;-63
2022/04/29 10:51:27;;;;;;;6.72;5.25;;;;;;;22.76;31.77;101112.72;10216542;28;20312;-62
2022/04/29 10:56:28;;;;;;;5.57;4.70;;;;;;;22.31;32.29;101114.38;10216468;28;20120;-62
2022/04/29 11:01:33;;;;;;;5.05;4.55;;;;;;;21.97;31.94;101104.78;10213601;28;21372;-63
2022/04/29 11:06:41;;;;;;;6.45;4.85;;;;;;;21.94;32.49;101100.53;10213771;28;20046;-62
2022/04/29 11:11:43;;;;;;;7.85;4.15;;;;;;;22.49;31.31;101086.97;10212166;28;21492;-61
2022/04/29 11:16:49;;;;;;;4.78;4.38;;;;;;;23.17;29.85;101085.19;10214471;28;20463;-62
2022/04/29 11:27:37;;;;;;;4.68;3.78;;;;;;;23.64;29.83;101073.09;10211588;28;20073;-62
2022/04/29 11:32:39;;;;;;;4.97;3.97;;;;;;;23.48;29.88;101070.59;10206459;28;20054;-62
2022/04/29 11:37:40;;;;;;;5.45;4.20;;;;;;;23.10;29.92;101070.69;10215192;28;20546;-61
2022/04/29 11:42:51;;;;;;;5.95;3.83;;;;;;;22.65;30.59;101069.72;10211626;28;20170;-61
2022/04/29 11:48:02;;;;;;;6.78;3.83;;;;;;;22.26;30.71;101066.09;10218899;28;20079;-60
2022/04/29 11:53:12;;;;;;;4.57;3.95;;;;;;;22.17;31.54;101051.78;10215934;28;20598;-65
2022/04/29 11:58:13;;;;;;;4.40;4.00;;;;;;;22.36;32.98;101049.63;10219106;28;20138;-62
2022/04/29 12:03:25;;;;;;;6.07;4.60;;;;;;;22.84;32.51;101057.53;10219868;28;20918;-64
2022/04/29 12:08:37;;;;;;;5.57;4.13;;;;;;;23.11;32.58;101037.06;10247180;28;20057;-63
2022/04/29 12:13:39;;;;;;;6.28;3.97;;;;;;;23.14;31.03;101031.25;10221182;28;20065;-66
2022/04/29 12:18:43;;;;;;;3.83;2.63;;;;;;;23.23;29.41;101019.28;10216183;28;20161;-66
2022/04/29 12:23:45;;;;;;;4.43;3.92;;;;;;;23.28;30.44;101011.41;10216176;28;20106;-63
2022/04/29 12:28:55;;;;;;;3.50;3.17;;;;;;;23.37;29.78;101016.72;10214293;28;20134;-64
2022/04/29 12:39:24;;;;;;;4.43;2.85;;;;;;;23.52;27.70;101006.69;10214812;28;20047;-64
2022/04/29 12:49:45;;;;;;;3.35;2.80;;;;;;;23.28;26.81;100983.41;10216054;28;20063;-62
2022/04/29 12:54:47;;;;;;;5.45;3.15;;;;;;;23.69;27.63;100985.56;10214131;28;20141;-60
2022/04/29 12:59:48;;;;;;;3.38;2.22;;;;;;;23.56;25.25;100991.69;10212566;28;20507;-61
2022/04/29 13:04:50;;;;;;;4.30;3.17;;;;;;;23.04;26.48;100979.09;10218460;28;20146;-62
2022/04/29 13:09:51;;;;;;;3.95;2.80;;;;;;;23.42;27.01;100984.41;10215553;28;20057;-64
2022/04/29 13:14:52;;;;;;;4.15;2.75;;;;;;;23.64;26.50;100967.13;10214960;28;20055;-63
2022/04/29 13:19:54;;;;;;;3.60;2.75;;;;;;;23.02;27.25;100968.41;10218265;28;20051;-62
2022/04/29 13:24:58;;;;;;;3.45;2.08;;;;;;;23.27;27.94;100966.28;10217324;28;20422;-64
2022/04/29 13:30:05;;;;;;;2.53;2.20;;;;;;;23.40;27.15;100945.72;10216516;28;20054;-62
2022/04/29 13:35:08;;;;;;;5.25;2.47;;;;;;;23.43;27.42;100937.19;10213331;28;20061;-61
2022/04/29 13:40:11;;;;;;;3.28;1.88;;;;;;;22.83;27.86;100923.66;10215379;28;20634;-61
2022/04/29 13:45:13;;;;;;;4.23;2.20;;;;;;;22.98;27.44;100922.84;10216924;28;20063;-64
2022/04/29 13:50:15;;;;;;;2.90;1.92;;;;;;;22.94;27.47;100925.94;10213390;28;20257;-64
2022/04/29 13:55:16;;;;;;;3.47;1.70;;;;;;;22.89;26.98;100920.19;10218398;28;20233;-63
2022/04/29 14:00:18;;;;;;;3.80;1.98;;;;;;;23.34;26.82;100908.47;10223884;28;20214;-64
2022/04/29 14:05:21;;;;;;;4.55;2.97;;;;;;;23.54;26.69;100904.09;10213592;28;20912;-62
2022/04/29 14:10:22;;;;;;;;;;;;;;;23.62;27.25;100906.66;10213519;28;20058;-61
2022/04/29 14:15:24;;;;;;;3.00;2.70;;;;;;;23.70;26.76;100910.31;10215585;28;19927;-60
2022/04/29 14:20:26;;;;;;;3.80;2.40;;;;;;;23.54;27.21;100898.66;10215628;28;20089;-62
2022/04/29 14:25:28;;;;;;;3.72;2.63;;;;;;;23.34;27.63;100889.44;10216422;28;20182;-64
2022/04/29 14:30:30;;;;;;;3.63;2.90;;;;;;;23.10;27.73;100872.47;10214341;28;20055;-64
2022/04/29 14:35:31;;;;;;;3.63;2.40;;;;;;;23.25;27.43;100886.84;10212063;28;20125;-65
2022/04/29 14:40:37;;;;;;;3.35;2.47;;;;;;;23.28;27.88;100874.75;10216532;28;22140;-64
2022/04/29 14:45:38;;;;;;;4.60;3.60;;;;;;;23.06;26.96;100871.13;10209015;28;21028;-65
2022/04/29 14:50:40;;;;;;;3.65;2.33;;;;;;;22.68;28.00;100857.72;10212473;28;20395;-61
2022/04/29 14:55:43;;;;;;;2.90;2.10;;;;;;;22.65;27.99;100858.09;10207763;28;20058;-64
2022/04/29 15:00:44;;;;;;;2.53;2.33;;;;;;;22.67;28.27;100861.47;10226209;28;20055;-64
2022/04/29 15:05:46;;;;;;;2.38;2.17;;;;;;;22.57;28.18;100837.34;10203752;28;20185;-64
2022/04/29 15:16:07;;;;;;;2.97;2.47;;;;;;;22.56;28.49;100833.81;10205992;28;20054;-62
2022/04/29 15:21:09;;;;;;;4.68;2.58;;;;;;;22.56;28.26;100850.06;10209006;28;20050;-63
2022/04/29 15:26:10;;;;;;;3.25;2.35;;;;;;;22.39;28.60;100843.16;10212855;28;20051;-63
2022/04/29 15:31:12;;;;;;;2.80;2.60;;;;;;;22.22;29.18;100834.34;10203783;28;20200;-62
2022/04/29 15:36:14;;;;;;;3.30;2.60;;;;;;;22.04;29.56;100823.84;10208650;28;20157;-62
2022/04/29 15:41:16;;;;;;;4.40;2.78;;;;;;;21.93;29.16;100827.00;10211128;28;20128;-62
2022/04/29 15:46:17;;;;;;;2.70;2.40;;;;;;;22.00;29.09;100823.34;10211815;28;20077;-64
2022/04/29 15:51:18;;;;;;;3.15;2.20;;;;;;;21.89;29.77;100821.94;10204945;28;20218;-63
2022/04/29 15:56:26;;;;;;;2.35;2.15;;;;;;;21.83;30.02;100824.56;10206342;28;20083;-63
2022/04/29 16:01:28;;;;;;;2.50;2.30;;;;;;;21.59;29.87;100815.63;10202921;28;20053;-63
2022/04/29 16:06:31;;;;;;;2.40;1.83;;;;;;;21.40;30.59;100826.91;10205173;28;20088;-63
2022/04/29 16:11:33;;;;;;;3.53;2.17;;;;;;;21.53;30.43;100821.78;10205128;28;20131;-62
2022/04/29 16:16:34;;;;;;;3.10;2.80;;;;;;;21.56;30.37;100825.97;10208792;28;20128;-63
2022/04/29 16:21:37;;;;;;;3.78;2.53;;;;;;;21.48;30.24;100808.75;10211313;28;20674;-64
2022/04/29 16:26:38;;;;;;;2.43;2.20;;;;;;;21.52;30.07;100811.94;10209191;28;20446;-63
2022/04/29 16:31:40;;;;;;;2.55;2.25;;;;;;;21.34;29.86;100785.16;10214769;28;20305;-63
2022/04/29 16:36:42;;;;;;;3.80;2.47;;;;;;;21.33;30.51;100805.13;10220719;28;20058;-64
2022/04/29 16:41:44;;;;;;;3.33;2.35;;;;;;;21.15;30.78;100789.16;10216008;28;20058;-63
2022/04/29 16:46:45;;;;;;;3.33;2.20;;;;;;;21.13;30.56;100800.19;10216368;28;20137;-65
2022/04/29 16:51:47;;;;;;;2.08;1.85;;;;;;;21.01;31.03;100801.63;10216770;28;20059;-61
2022/04/29 17:02:09;;;;;;;2.88;2.67;;;;;;;20.70;31.67;100788.09;10219629;28;20069;-62
2022/04/29 17:07:11;;;;;;;5.53;2.70;;;;;;;20.56;31.59;100784.25;10215229;28;20952;-62
2022/04/29 17:12:13;;;;;;;2.80;2.55;;;;;;;20.43;32.01;100782.97;10217824;28;20059;-62
2022/04/29 17:17:16;;;;;;;2.80;2.42;;;;;;;20.40;32.14;100794.13;10216754;28;20057;-63
2022/04/29 17:22:18;;;;;;;3.17;2.88;;;;;;;20.34;32.64;100794.78;10215845;28;20067;-64
2022/04/29 17:27:22;;;;;;;3.92;2.40;;;;;;;20.19;32.94;100783.03;10215760;28;20650;-64
2022/04/29 17:32:24;;;;;;;3.28;2.92;;;;;;;20.06;33.49;100778.19;10213463;28;20538;-64
2022/04/29 17:37:27;;;;;;;4.07;2.60;;;;;;;19.93;33.94;100767.91;10216866;28;20051;-63
2022/04/29 17:42:33;;;;;;;3.88;2.78;;;;;;;19.95;34.18;100787.47;10214655;28;20170;-64
2022/04/29 17:47:38;;;;;;;3.97;2.67;;;;;;;19.88;34.69;100789.22;10213726;28;20078;-63
2022/04/29 17:52:40;;;;;;;5.15;2.90;;;;;;;19.70;34.94;100770.47;10215833;28;20141;-64
2022/04/29 17:57:43;;;;;;;4.55;2.83;;;;;;;19.63;35.18;100764.06;10206688;28;21433;-64
2022/04/29 18:02:47;;;;;;;5.13;3.03;;;;;;;19.67;35.42;100782.44;10218782;28;20065;-62
2022/04/29 18:07:49;;;;;;;6.15;2.97;;;;;;;19.56;35.92;100778.22;10212892;28;20707;-65
2022/04/29 18:12:53;;;;;;;4.05;3.25;;;;;;;19.51;36.08;100774.34;10213872;28;20059;-63
2022/04/29 18:17:55;;;;;;;3.67;2.92;;;;;;;19.39;36.57;100769.28;10244538;28;20520;-63
2022/04/29 18:22:57;;;;;;;4.22;3.00;;;;;;;19.33;36.69;100775.34;10214348;28;20057;-64
2022/04/29 18:28:00;;;;;;;4.50;3.00;;;;;;;19.19;36.56;100762.53;10209383;28;20058;-64
2022/04/29 18:33:01;;;;;;;5.53;3.10;;;;;;;19.11;36.89;100771.47;10211429;28;20055;-64
2022/04/29 18:38:03;;;;;;;4.38;3.97;;;;;;;19.00;37.39;100772.63;10213369;28;20059;-66
2022/04/29 18:43:04;;;;;;;4.93;3.10;;;;;;;19.00;37.36;100786.09;10203817;28;20142;-67
2022/04/29 18:48:06;;;;;;;3.28;2.67;;;;;;;18.86;37.06;100773.28;10209439;28;20055;-64
2022/04/29 18:53:07;;;;;;;5.68;4.25;;;;;;;18.59;38.15;100777.06;10216725;28;20055;-63
2022/04/29 18:58:09;;;;;;;4.95;4.00;;;;;;;18.63;38.11;100789.19;10215110;28;20121;-62
2022/04/29 19:03:11;;;;;;;5.30;4.25;;;;;;;18.59;37.82;100787.84;10212295;28;21300;-62
2022/04/29 19:08:16;;;;;;;4.68;3.97;;;;;;;18.46;38.95;100781.03;10213523;28;20118;-65
2022/04/29 19:13:17;;;;;;;7.80;5.45;;;;;;;18.45;38.32;100797.38;10216109;28;20049;-63
2022/04/29 19:18:19;;;;;;;6.55;4.35;;;;;;;18.43;39.05;100786.75;10214316;28;20055;-62
2022/04/29 19:23:23;;;;;;;5.80;4.50;;;;;;;18.48;38.84;100794.34;10215526;28;20063;-64
2022/04/29 19:28:25;;;;;;;4.75;3.55;;;;;;;18.48;39.21;100797.03;10215300;28;20141;-62
2022/04/29 19:33:27;;;;;;;5.90;4.07;;;;;;;18.38;38.49;100781.00;10214614;28;20155;-63
2022/04/29 19:38:29;;;;;;;5.07;4.57;;;;;;;18.40;38.99;100794.31;10211340;28;20246;-63
2022/04/29 19:43:31;;;;;;;5.90;4.60;;;;;;;18.37;39.29;100795.47;10213207;28;20110;-62
2022/04/29 19:48:33;;;;;;;6.10;5.32;;;;;;;18.38;40.14;100795.31;10209126;28;20068;-62
2022/04/29 19:53:35;;;;;;;7.03;4.63;;;;;;;18.33;39.91;100797.66;10209641;28;20133;-64
2022/04/29 20:03:56;;;;;;;5.45;4.40;;;;;;;18.01;41.02;100774.94;10211895;28;20051;-62
2022/04/29 20:09:00;;;;;;;;;;;;;;;18.00;42.64;100802.88;10219690;28;20063;-62
2022/04/29 20:14:02;;;;;;;7.35;4.95;;;;;;;18.01;43.76;100809.97;10221816;28;19926;-62
2022/04/29 20:19:04;;;;;;;5.63;4.30;;;;;;;17.98;44.22;100799.47;10219767;28;22540;-64
2022/04/29 20:24:06;;;;;;;5.50;4.75;;;;;;;17.80;46.64;100804.03;10225989;28;20134;-63
2022/04/29 20:29:07;;;;;;;8.18;5.40;;;;;;;17.74;48.70;100807.34;10218614;28;20047;-62
2022/04/29 20:34:09;;;;;;;10.23;5.43;;;;;;;17.59;50.38;100802.53;10217395;28;20446;-63
2022/04/29 20:44:30;;;;;;;8.63;7.75;;;;;;;17.26;51.02;100818.41;10220703;28;20190;-63
2022/04/29 20:49:31;;;;;;;12.13;9.13;;;;;;;17.20;51.92;100813.63;10217787;28;20081;-66
2022/04/29 20:54:33;;;;;;;10.88;9.38;;;;;;;16.98;53.60;100814.06;10216436;28;20068;-61
2022/04/29 20:59:35;;;;;;;14.85;10.63;;;;;;;16.95;54.72;100832.19;10214087;28;20055;-63
2022/04/29 21:04:37;;;;;;;15.27;11.23;;;;;;;16.71;55.62;100829.19;10217099;28;20066;-62
2022/04/29 21:09:39;;;;;;;15.93;11.90;;;;;;;16.69;57.17;100826.63;10215231;28;20289;-62
2022/04/29 21:14:40;;;;;;;16.38;12.95;;;;;;;16.44;56.21;100823.66;10219259;28;20052;-61
2022/04/29 21:19:43;;;;;;;15.30;12.60;;;;;;;16.39;56.58;100808.97;10227383;28;20050;-65
2022/04/29 21:24:44;;;;;;;14.27;12.48;;;;;;;16.50;56.23;100834.78;10233100;28;20498;-65
2022/04/29 21:35:07;;;;;;;15.68;13.48;;;;;;;16.13;57.93;100814.16;10233314;28;20069;-65
2022/04/29 21:40:09;;;;;;;15.63;12.63;;;;;;;16.06;58.84;100835.38;10232297;28;20478;-63
2022/04/29 21:45:11;;;;;;;17.00;13.20;;;;;;;16.04;58.72;100826.63;10239254;28;20558;-66
2022/04/29 21:50:14;;;;;;;16.73;14.15;;;;;;;15.93;58.82;100830.34;10233484;28;20122;-64
2022/04/29 21:55:15;;;;;;;17.65;14.25;;;;;;;15.62;58.80;100827.78;10231497;28;20063;-64
2022/04/29 22:00:20;;;;;;;20.25;14.13;;;;;;;15.30;60.21;100834.28;10235374;28;20129;-64
2022/04/29 22:05:22;;;;;;;16.45;14.10;;;;;;;15.15;61.47;100823.13;10233922;28;20079;-63
2022/04/29 22:10:24;;;;;;;15.48;13.02;;;;;;;15.26;59.86;100813.25;10235551;28;20089;-65
2022/04/29 22:15:26;;;;;;;15.52;13.55;;;;;;;15.34;59.60;100829.47;10232438;28;20059;-64
2022/04/29 22:20:28;;;;;;;16.33;12.90;;;;;;;15.02;60.55;100826.06;10230141;28;20129;-65
2022/04/29 22:25:29;;;;;;;17.65;13.20;;;;;;;14.77;61.05;100810.50;10229700;28;20047;-65
2022/04/29 22:30:31;;;;;;;16.02;12.85;;;;;;;14.86;61.12;100825.75;10228410;28;22629;-65
2022/04/29 22:35:33;;;;;;;19.02;13.65;;;;;;;14.84;60.85;100820.50;10249236;28;20058;-64
2022/04/29 22:40:34;;;;;;;17.42;12.50;;;;;;;14.67;60.80;100813.16;10234080;28;20053;-64
2022/04/29 22:45:36;;;;;;;16.52;12.50;;;;;;;14.74;59.59;100814.31;10241170;28;20062;-64
2022/04/29 22:50:37;;;;;;;15.30;12.50;;;;;;;14.71;59.63;100814.56;10236675;28;20051;-62
2022/04/29 22:55:39;;;;;;;14.95;12.68;;;;;;;14.67;59.07;100807.81;10229243;28;20151;-64
2022/04/29 23:00:40;;;;;;;15.10;11.65;;;;;;;14.39;59.81;100798.66;10234183;28;20749;-65
2022/04/29 23:05:42;;;;;;;16.58;12.00;;;;;;;14.13;60.15;100791.91;10232710;28;20462;-64
2022/04/29 23:10:44;;;;;;;17.33;11.70;;;;;;;14.16;60.49;100801.50;10231048;28;20054;-63
2022/04/29 23:15:46;;;;;;;15.25;11.13;;;;;;;14.31;59.50;100805.50;10235579;28;20134;-69
2022/04/29 23:20:48;;;;;;;14.98;10.73;;;;;;;14.10;59.83;100805.56;10234688;28;20652;-64
2022/04/29 23:25:49;;;;;;;17.77;12.32;;;;;;;14.15;59.99;100799.81;10229195;28;20059;-65
2022/04/29 23:30:51;;;;;;;14.23;10.95;;;;;;;14.05;60.07;100793.53;10227539;28;20106;-65
2022/04/29 23:35:52;;;;;;;13.13;10.75;;;;;;;13.97;59.72;100780.81;10229324;28;20117;-65
2022/04/29 23:40:54;;;;;;;13.25;10.73;;;;;;;13.81;60.37;100804.53;10232345;28;20050;-65
2022/04/29 23:45:55;;;;;;;12.70;10.20;;;;;;;13.83;60.65;100794.56;10230760;28;20834;-64
2022/04/29 23:50:56;;;;;;;15.65;10.48;;;;;;;13.70;60.43;100784.06;10228439;28;20186;-64
2022/04/29 23:55:58;;;;;;;13.88;10.88;;;;;;;13.78;60.72;100803.84;10226104;28;20716;-65
